Time;durP1;ratioP1;P1;durP2;ratioP2;P2;SDS_P1;SDS_P2;PMS_P1;PMS_P2;Temp;Humidity;BMP_temperature;BMP_pressure;BME280_temperature;BME280_humidity;BME280_pressure;Samples;Min_cycle;Max_cycle;Signal;HPM_P1;HPM_P2
2022/01/01 00:01:46;;;;;;;268.27;126.93;;;;;;;-141.29;100.00;58932.97;5073644;28;20443;-75
2022/01/01 00:04:16;;;;;;;343.60;156.00;;;;;;;-141.29;100.00;58932.97;5073253;28;20469;-77
2022/01/01 00:06:49;;;;;;;315.40;146.67;;;;;;;-141.29;100.00;58932.97;5073882;28;20435;-75
2022/01/01 00:09:20;;;;;;;317.17;146.77;;;;;;;-141.29;100.00;58932.97;5073579;28;20536;-75
2022/01/01 00:11:47;;;;;;;284.27;138.07;;;;;;;-141.29;100.00;58932.97;5073486;28;20525;-73
2022/01/01 00:14:16;;;;;;;311.40;145.07;;;;;;;-141.29;100.00;58932.97;5073456;28;20446;-77
2022/01/01 00:16:43;;;;;;;272.73;133.50;;;;;;;-141.29;100.00;58932.97;5073369;28;20964;-75
2022/01/01 00:19:12;;;;;;;302.07;142.80;;;;;;;-141.29;100.00;58932.97;5073101;28;20434;-74
2022/01/01 00:21:44;;;;;;;295.10;139.87;;;;;;;-141.29;100.00;58932.97;5072892;28;20511;-74
2022/01/01 00:24:13;;;;;;;252.30;119.30;;;;;;;-141.29;100.00;58932.97;5073335;28;20423;-74
2022/01/01 00:26:43;;;;;;;282.43;135.10;;;;;;;-141.29;100.00;58932.97;5072930;28;20439;-75
2022/01/01 00:29:11;;;;;;;308.10;140.57;;;;;;;-141.29;100.00;58932.97;5072737;28;20486;-76
2022/01/01 00:31:39;;;;;;;296.30;142.73;;;;;;;-141.29;100.00;58932.97;5073180;28;20447;-74
2022/01/01 00:34:12;;;;;;;242.70;120.57;;;;;;;-141.29;100.00;58932.97;5073086;28;20446;-76
2022/01/01 00:36:46;;;;;;;261.33;123.23;;;;;;;-141.29;100.00;58932.97;5073154;28;20512;-75
2022/01/01 00:39:16;;;;;;;274.57;131.17;;;;;;;-141.29;100.00;58932.97;5072899;28;20442;-76
2022/01/01 00:41:44;;;;;;;252.50;125.77;;;;;;;-141.29;100.00;58932.97;5072525;28;20812;-75
2022/01/01 00:44:14;;;;;;;235.80;116.93;;;;;;;-141.29;100.00;58932.97;5072926;28;20522;-77
2022/01/01 00:46:45;;;;;;;238.90;114.30;;;;;;;-141.29;100.00;58932.97;5073534;28;20965;-74
2022/01/01 00:49:15;;;;;;;237.73;118.10;;;;;;;-141.29;100.00;58932.97;5072699;28;21070;-76
2022/01/01 00:51:46;;;;;;;148.10;71.57;;;;;;;-141.29;100.00;58932.97;5072705;28;20476;-75
2022/01/01 00:57:03;;;;;;;127.10;62.70;;;;;;;-141.29;100.00;58932.97;5072630;28;20872;-76
2022/01/01 00:59:37;;;;;;;109.07;53.57;;;;;;;-141.29;100.00;58932.97;5072469;28;20442;-75
2022/01/01 01:02:04;;;;;;;77.90;38.47;;;;;;;-141.29;100.00;58932.97;5071259;28;20430;-74
2022/01/01 01:04:33;;;;;;;135.83;67.40;;;;;;;-141.29;100.00;58932.97;5072276;28;20451;-75
2022/01/01 01:07:00;;;;;;;58.23;29.20;;;;;;;-141.29;100.00;58932.97;5072959;28;20508;-75
2022/01/01 01:09:29;;;;;;;119.03;58.83;;;;;;;-141.29;100.00;58932.97;5072216;28;20478;-75
2022/01/01 01:12:00;;;;;;;80.50;40.77;;;;;;;-141.29;100.00;58932.97;5071178;28;20444;-74
2022/01/01 01:14:28;;;;;;;101.90;53.13;;;;;;;-141.29;100.00;58932.97;5072239;28;20439;-74
2022/01/01 01:16:56;;;;;;;89.40;42.73;;;;;;;-141.29;100.00;58932.97;5072029;28;20509;-74
2022/01/01 01:19:25;;;;;;;120.17;55.67;;;;;;;-141.29;100.00;58932.97;5072411;28;20462;-74
2022/01/01 01:21:52;;;;;;;86.80;46.33;;;;;;;-141.29;100.00;58932.97;5071272;28;20967;-75
2022/01/01 01:24:23;;;;;;;116.70;58.03;;;;;;;-141.29;100.00;58932.97;5072353;28;20785;-75
2022/01/01 01:26:56;;;;;;;84.40;42.60;;;;;;;-141.29;100.00;58932.97;5072536;28;20467;-75
2022/01/01 01:29:24;;;;;;;126.70;58.23;;;;;;;-141.29;100.00;58932.97;5071517;28;20539;-75
2022/01/01 01:31:52;;;;;;;121.77;59.10;;;;;;;-141.29;100.00;58932.97;5072334;28;20477;-75
2022/01/01 01:34:21;;;;;;;61.23;30.70;;;;;;;-141.29;100.00;58932.97;5071683;28;20457;-77
2022/01/01 01:36:49;;;;;;;94.83;46.07;;;;;;;-141.29;100.00;58932.97;5072195;28;21049;-74
2022/01/01 01:39:16;;;;;;;83.07;42.30;;;;;;;-141.29;100.00;58932.97;5072103;28;20446;-74
2022/01/01 01:41:46;;;;;;;80.73;40.70;;;;;;;-141.29;100.00;58932.97;5071880;28;20522;-76
2022/01/01 01:44:43;;;;;;;78.90;39.67;;;;;;;-141.29;100.00;58932.97;5071891;28;20855;-76
2022/01/01 01:47:15;;;;;;;92.00;46.60;;;;;;;-141.29;100.00;58932.97;5072153;28;20475;-75
2022/01/01 01:49:46;;;;;;;77.83;38.87;;;;;;;-141.29;100.00;58932.97;5071928;28;20474;-77
2022/01/01 01:52:20;;;;;;;118.73;57.23;;;;;;;-141.29;100.00;58932.97;5071227;28;20525;-75
2022/01/01 01:54:47;;;;;;;99.70;48.37;;;;;;;-141.29;100.00;58932.97;5070783;28;20441;-77
2022/01/01 01:57:14;;;;;;;73.63;37.33;;;;;;;-141.29;100.00;58932.97;5073232;28;20442;-73
2022/01/01 01:59:47;;;;;;;91.43;46.80;;;;;;;-141.29;100.00;58932.97;5079246;28;20431;-73
2022/01/01 02:02:31;;;;;;;81.70;42.23;;;;;;;-141.29;100.00;58932.97;5077830;28;20483;-74
2022/01/01 02:05:01;;;;;;;70.53;35.07;;;;;;;-141.29;100.00;58932.97;5071477;28;20446;-74
2022/01/01 02:07:33;;;;;;;72.07;38.83;;;;;;;-141.29;100.00;58932.97;5072283;28;20433;-76
2022/01/01 02:10:03;;;;;;;56.40;31.20;;;;;;;-141.29;100.00;58932.97;5072028;28;20479;-76
2022/01/01 02:12:33;;;;;;;65.33;32.40;;;;;;;-141.29;100.00;58932.97;5069804;28;20486;-75
2022/01/01 02:15:27;;;;;;;66.27;34.50;;;;;;;-141.29;100.00;58932.97;5071689;28;20434;-76
2022/01/01 02:17:55;;;;;;;66.90;32.27;;;;;;;-141.29;100.00;58932.97;5072297;28;20475;-76
2022/01/01 02:20:28;;;;;;;54.03;29.27;;;;;;;-141.29;100.00;58932.97;5072131;28;20514;-74
2022/01/01 02:23:00;;;;;;;60.97;29.33;;;;;;;-141.29;100.00;58932.97;5071835;28;20447;-74
2022/01/01 02:25:29;;;;;;;69.87;34.07;;;;;;;-141.29;100.00;58932.97;5071442;28;20447;-74
2022/01/01 02:27:58;;;;;;;55.83;28.87;;;;;;;-141.29;100.00;58932.97;5071683;28;20530;-75
2022/01/01 02:30:26;;;;;;;64.20;31.13;;;;;;;-141.29;100.00;58932.97;5071886;28;20845;-76
2022/01/01 02:32:58;;;;;;;65.80;33.13;;;;;;;-141.29;100.00;58932.97;5071464;28;20438;-75
2022/01/01 02:35:36;;;;;;;69.13;32.93;;;;;;;-141.29;100.00;58932.97;5071658;28;20830;-75
2022/01/01 02:38:05;;;;;;;61.57;30.50;;;;;;;-141.29;100.00;58932.97;5071802;28;20462;-75
2022/01/01 02:40:32;;;;;;;61.53;30.07;;;;;;;-141.29;100.00;58932.97;5073639;28;20430;-74
2022/01/01 02:43:01;;;;;;;62.00;31.77;;;;;;;-141.29;100.00;58932.97;5074835;28;20480;-76
2022/01/01 02:45:30;;;;;;;68.00;31.90;;;;;;;-141.29;100.00;58932.97;5075292;28;20803;-75
2022/01/01 02:47:58;;;;;;;64.43;32.27;;;;;;;-141.29;100.00;58932.97;5075311;28;20442;-76
2022/01/01 02:50:27;;;;;;;70.60;36.07;;;;;;;-141.29;100.00;58932.97;5074841;28;21062;-74
2022/01/01 02:53:00;;;;;;;66.93;34.37;;;;;;;-141.29;100.00;58932.97;5075128;28;20961;-73
2022/01/01 02:55:27;;;;;;;67.83;32.20;;;;;;;-141.29;100.00;58932.97;5075399;28;20835;-75
2022/01/01 02:57:56;;;;;;;72.47;34.00;;;;;;;-141.29;100.00;58932.97;5074898;28;20995;-76
2022/01/01 03:00:24;;;;;;;67.33;31.20;;;;;;;-141.29;100.00;58932.97;5075204;28;20451;-72
2022/01/01 03:02:52;;;;;;;63.30;31.90;;;;;;;-141.29;100.00;58932.97;5074769;28;20438;-75
2022/01/01 03:05:20;;;;;;;56.17;30.70;;;;;;;-141.29;100.00;58932.97;5074711;28;20886;-75
2022/01/01 03:07:50;;;;;;;64.87;31.97;;;;;;;-141.29;100.00;58932.97;5075366;28;20449;-78
2022/01/01 03:10:19;;;;;;;61.47;30.57;;;;;;;-141.29;100.00;58932.97;5074684;28;20539;-75
2022/01/01 03:12:57;;;;;;;59.27;31.03;;;;;;;-141.29;100.00;58932.97;5074509;28;20474;-73
2022/01/01 03:15:29;;;;;;;64.13;29.40;;;;;;;-141.29;100.00;58932.97;5073402;28;20500;-75
2022/01/01 03:18:02;;;;;;;47.63;25.57;;;;;;;-141.29;100.00;58932.97;5074535;28;20482;-75
2022/01/01 03:20:29;;;;;;;57.03;26.63;;;;;;;-141.29;100.00;58932.97;5074602;28;20506;-74
2022/01/01 03:22:58;;;;;;;47.23;25.17;;;;;;;-141.29;100.00;58932.97;5075023;28;20804;-76
2022/01/01 03:25:32;;;;;;;52.00;27.37;;;;;;;-141.29;100.00;58932.97;5074413;28;20455;-74
2022/01/01 03:30:41;;;;;;;57.70;27.10;;;;;;;-141.29;100.00;58932.97;5074002;28;20485;-74
2022/01/01 03:33:08;;;;;;;51.70;26.67;;;;;;;-141.29;100.00;58932.97;5074461;28;20450;-76
2022/01/01 03:35:35;;;;;;;48.57;25.07;;;;;;;-141.29;100.00;58932.97;5074396;28;20441;-74
2022/01/01 03:38:02;;;;;;;49.13;23.00;;;;;;;-141.29;100.00;58932.97;5074222;28;20443;-75
2022/01/01 03:40:33;;;;;;;65.07;30.87;;;;;;;-141.29;100.00;58932.97;5074068;28;20458;-76
2022/01/01 03:43:02;;;;;;;76.30;33.77;;;;;;;-141.29;100.00;58932.97;5073931;28;20909;-74
2022/01/01 03:45:32;;;;;;;66.20;28.97;;;;;;;-141.29;100.00;58932.97;5074098;28;20447;-75
2022/01/01 03:47:59;;;;;;;63.80;30.60;;;;;;;-141.29;100.00;58932.97;5074207;28;20435;-74
2022/01/01 03:50:27;;;;;;;61.27;28.53;;;;;;;-141.29;100.00;58932.97;5073986;28;20531;-76
2022/01/01 03:52:55;;;;;;;57.03;26.97;;;;;;;-141.29;100.00;58932.97;5073291;28;20434;-75
2022/01/01 03:55:23;;;;;;;67.10;27.73;;;;;;;-141.29;100.00;58932.97;5072544;28;20821;-75
2022/01/01 03:57:54;;;;;;;79.20;29.53;;;;;;;-141.29;100.00;58932.97;5072802;28;20439;-75
2022/01/01 04:00:22;;;;;;;76.03;29.90;;;;;;;-141.29;100.00;58932.97;5072949;28;20824;-74
2022/01/01 04:02:50;;;;;;;45.90;19.93;;;;;;;-141.29;100.00;58932.97;5073728;28;21010;-75
2022/01/01 04:05:17;;;;;;;43.20;20.63;;;;;;;-141.29;100.00;58932.97;5072479;28;20507;-75
2022/01/01 04:07:45;;;;;;;36.60;18.73;;;;;;;-141.29;100.00;58932.97;5073532;28;20464;-76
2022/01/01 04:10:14;;;;;;;75.20;26.10;;;;;;;-141.29;100.00;58932.97;5079086;28;20486;-74
2022/01/01 04:12:42;;;;;;;65.67;25.10;;;;;;;-141.29;100.00;58932.97;5075125;28;20538;-76
2022/01/01 04:15:14;;;;;;;66.10;25.90;;;;;;;-141.29;100.00;58932.97;5073579;28;20945;-74
2022/01/01 04:17:45;;;;;;;64.87;24.33;;;;;;;-141.29;100.00;58932.97;5074163;28;20478;-76
2022/01/01 04:20:12;;;;;;;68.37;23.70;;;;;;;-141.29;100.00;58932.97;5073636;28;21130;-74
2022/01/01 04:22:41;;;;;;;47.70;20.43;;;;;;;-141.29;100.00;58932.97;5073509;28;20830;-77
2022/01/01 04:25:09;;;;;;;62.50;22.37;;;;;;;-141.29;100.00;58932.97;5073593;28;20446;-75
2022/01/01 04:27:40;;;;;;;37.47;16.93;;;;;;;-141.29;100.00;58932.97;5073422;28;20446;-76
2022/01/01 04:30:08;;;;;;;56.60;22.00;;;;;;;-141.29;100.00;58932.97;5073548;28;20527;-75
2022/01/01 04:32:36;;;;;;;53.43;21.10;;;;;;;-141.29;100.00;58932.97;5073143;28;20543;-74
2022/01/01 04:35:04;;;;;;;81.10;27.90;;;;;;;-141.29;100.00;58932.97;5073115;28;20446;-74
2022/01/01 04:37:32;;;;;;;86.63;28.10;;;;;;;-141.29;100.00;58932.97;5073960;28;20434;-75
2022/01/01 04:39:59;;;;;;;55.83;21.50;;;;;;;-141.29;100.00;58932.97;5073327;28;20470;-75
2022/01/01 04:42:30;;;;;;;39.70;18.33;;;;;;;-141.29;100.00;58932.97;5072418;28;20485;-74
2022/01/01 04:44:59;;;;;;;63.13;22.60;;;;;;;-141.29;100.00;58932.97;5072742;28;20471;-76
2022/01/01 04:47:30;;;;;;;66.17;25.07;;;;;;;-141.29;100.00;58932.97;5073115;28;20457;-75
2022/01/01 04:50:06;;;;;;;53.43;21.67;;;;;;;-141.29;100.00;58932.97;5072946;28;20562;-75
2022/01/01 04:52:35;;;;;;;56.53;23.10;;;;;;;-141.29;100.00;58932.97;5073279;28;20438;-76
2022/01/01 04:55:02;;;;;;;64.07;24.10;;;;;;;-141.29;100.00;58932.97;5073015;28;20435;-77
2022/01/01 04:57:30;;;;;;;38.17;18.20;;;;;;;-141.29;100.00;58932.97;5073251;28;20773;-74
2022/01/01 05:00:00;;;;;;;55.33;22.57;;;;;;;-141.29;100.00;58932.97;5073810;28;20473;-75
2022/01/01 05:02:29;;;;;;;54.83;23.67;;;;;;;-141.29;100.00;58932.97;5072458;28;20447;-75
2022/01/01 05:05:17;;;;;;;59.90;23.50;;;;;;;-141.29;100.00;58932.97;5072459;28;20447;-75
2022/01/01 05:07:45;;;;;;;50.70;20.93;;;;;;;-141.29;100.00;58932.97;5071203;28;20496;-75
2022/01/01 05:10:12;;;;;;;52.63;21.50;;;;;;;-141.29;100.00;58932.97;5072318;28;20486;-75
2022/01/01 05:12:48;;;;;;;54.20;22.10;;;;;;;-141.29;100.00;58932.97;5072564;28;20488;-75
2022/01/01 05:15:18;;;;;;;55.50;23.80;;;;;;;-141.29;100.00;58932.97;5072450;28;20482;-74
2022/01/01 05:17:45;;;;;;;54.47;22.53;;;;;;;-141.29;100.00;58932.97;5072194;28;20443;-75
2022/01/01 05:20:17;;;;;;;52.07;23.47;;;;;;;-141.29;100.00;58932.97;5072229;28;20542;-74
2022/01/01 05:22:44;;;;;;;53.30;25.43;;;;;;;-141.29;100.00;58932.97;5072553;28;20941;-74
2022/01/01 05:25:12;;;;;;;55.70;27.23;;;;;;;-141.29;100.00;58932.97;5073126;28;20451;-74
2022/01/01 05:27:40;;;;;;;68.53;32.63;;;;;;;-141.29;100.00;58932.97;5072150;28;20438;-74
2022/01/01 05:30:11;;;;;;;78.23;36.73;;;;;;;-141.29;100.00;58932.97;5070891;28;20496;-74
2022/01/01 05:32:40;;;;;;;72.73;36.73;;;;;;;-141.29;100.00;58932.97;5072334;28;20930;-75
2022/01/01 05:35:09;;;;;;;82.50;37.87;;;;;;;-141.29;100.00;58932.97;5071908;28;20508;-74
2022/01/01 05:37:38;;;;;;;79.97;39.50;;;;;;;-141.29;100.00;58932.97;5072009;28;20469;-76
2022/01/01 05:40:07;;;;;;;68.80;35.37;;;;;;;-141.29;100.00;58932.97;5071883;28;21090;-75
2022/01/01 05:42:35;;;;;;;68.30;33.10;;;;;;;-141.29;100.00;58932.97;5072312;28;20478;-74
2022/01/01 05:45:04;;;;;;;69.73;34.73;;;;;;;-141.29;100.00;58932.97;5072575;28;20438;-76
2022/01/01 05:47:32;;;;;;;65.20;33.87;;;;;;;-141.29;100.00;58932.97;5072016;28;20439;-77
2022/01/01 05:49:59;;;;;;;66.97;34.90;;;;;;;-141.29;100.00;58932.97;5072371;28;20474;-75
2022/01/01 05:52:27;;;;;;;65.17;34.10;;;;;;;-141.29;100.00;58932.97;5072363;28;20443;-75
2022/01/01 05:54:57;;;;;;;65.27;33.60;;;;;;;-141.29;100.00;58932.97;5072416;28;20442;-75
2022/01/01 05:57:24;;;;;;;58.53;29.27;;;;;;;-141.29;100.00;58932.97;5071818;28;20438;-75
2022/01/01 05:59:51;;;;;;;52.23;28.03;;;;;;;-141.29;100.00;58932.97;5071876;28;20583;-76
2022/01/01 06:02:18;;;;;;;54.87;27.43;;;;;;;-141.29;100.00;58932.97;5072288;28;20434;-74
2022/01/01 06:04:45;;;;;;;56.73;28.53;;;;;;;-141.29;100.00;58932.97;5071489;28;20438;-75
2022/01/01 06:07:13;;;;;;;50.00;24.67;;;;;;;-141.29;100.00;58932.97;5071594;28;20956;-75
2022/01/01 06:09:40;;;;;;;46.50;22.93;;;;;;;-141.29;100.00;58932.97;5072149;28;20435;-75
2022/01/01 06:12:09;;;;;;;50.33;26.70;;;;;;;-141.29;100.00;58932.97;5071962;28;20482;-74
2022/01/01 06:14:36;;;;;;;39.37;19.83;;;;;;;-141.29;100.00;58932.97;5071372;28;20798;-76
2022/01/01 06:17:04;;;;;;;43.63;24.73;;;;;;;-141.29;100.00;58932.97;5075881;28;20434;-75
2022/01/01 06:19:30;;;;;;;51.90;24.70;;;;;;;-141.29;100.00;58932.97;5075905;28;20496;-75
2022/01/01 06:21:57;;;;;;;46.13;23.17;;;;;;;-141.29;100.00;58932.97;5081251;28;20449;-73
2022/01/01 06:24:24;;;;;;;48.17;25.80;;;;;;;-141.29;100.00;58932.97;5077250;28;20442;-74
2022/01/01 06:26:53;;;;;;;52.33;26.53;;;;;;;-141.29;100.00;58932.97;5075322;28;20932;-77
2022/01/01 06:29:22;;;;;;;48.17;26.47;;;;;;;-141.29;100.00;58932.97;5075365;28;20504;-75
2022/01/01 06:31:51;;;;;;;53.03;26.77;;;;;;;-141.29;100.00;58932.97;5075518;28;20478;-76
2022/01/01 06:34:21;;;;;;;47.30;25.80;;;;;;;-141.29;100.00;58932.97;5075992;28;20488;-75
2022/01/01 06:36:51;;;;;;;45.30;24.03;;;;;;;-141.29;100.00;58932.97;5076407;28;20493;-76
2022/01/01 06:39:18;;;;;;;49.13;26.50;;;;;;;-141.29;100.00;58932.97;5075338;28;20519;-75
2022/01/01 06:41:46;;;;;;;50.80;24.07;;;;;;;-141.29;100.00;58932.97;5075254;28;20853;-75
2022/01/01 06:44:15;;;;;;;50.70;25.53;;;;;;;-141.29;100.00;58932.97;5075349;28;20462;-74
2022/01/01 06:46:46;;;;;;;44.23;23.00;;;;;;;-141.29;100.00;58932.97;5075073;28;20503;-74
2022/01/01 06:49:13;;;;;;;48.00;25.93;;;;;;;-141.29;100.00;58932.97;5075870;28;20507;-76
2022/01/01 06:51:40;;;;;;;36.93;19.20;;;;;;;-141.29;100.00;58932.97;5074950;28;20474;-75
2022/01/01 06:54:07;;;;;;;55.90;28.70;;;;;;;-141.29;100.00;58932.97;5075084;28;20443;-74
2022/01/01 06:56:36;;;;;;;46.87;27.13;;;;;;;-141.29;100.00;58932.97;5074848;28;20515;-74
2022/01/01 06:59:03;;;;;;;34.70;20.13;;;;;;;-141.29;100.00;58932.97;5073596;28;20949;-76
2022/01/01 07:01:31;;;;;;;38.83;21.00;;;;;;;-141.29;100.00;58932.97;5074997;28;21022;-75
2022/01/01 07:04:00;;;;;;;44.97;24.03;;;;;;;-141.29;100.00;58932.97;5075287;28;20447;-77
2022/01/01 07:06:31;;;;;;;38.67;22.13;;;;;;;-141.29;100.00;58932.97;5074915;28;20430;-75
2022/01/01 07:08:58;;;;;;;24.23;15.03;;;;;;;-141.29;100.00;58932.97;5074516;28;20728;-73
2022/01/01 07:11:25;;;;;;;23.40;14.27;;;;;;;-141.29;100.00;58932.97;5073483;28;20485;-75
2022/01/01 07:13:54;;;;;;;24.97;15.40;;;;;;;-141.29;100.00;58932.97;5074123;28;20461;-76
2022/01/01 07:16:21;;;;;;;21.60;13.77;;;;;;;-141.29;100.00;58932.97;5074442;28;20442;-75
2022/01/01 07:18:50;;;;;;;24.17;14.20;;;;;;;-141.29;100.00;58932.97;5074412;28;20476;-73
2022/01/01 07:21:19;;;;;;;20.80;12.13;;;;;;;-141.29;100.00;58932.97;5073931;28;20953;-76
2022/01/01 07:23:46;;;;;;;25.53;15.13;;;;;;;-141.29;100.00;58932.97;5073130;28;20435;-74
2022/01/01 07:26:13;;;;;;;27.93;16.80;;;;;;;-141.29;100.00;58932.97;5073077;28;20451;-76
2022/01/01 07:28:41;;;;;;;30.53;16.40;;;;;;;-141.29;100.00;58932.97;5074444;28;20427;-75
2022/01/01 07:31:18;;;;;;;33.63;19.20;;;;;;;-141.29;100.00;58932.97;5074088;28;20478;-76
2022/01/01 07:33:51;;;;;;;33.53;18.87;;;;;;;-141.29;100.00;58932.97;5074858;28;20435;-75
2022/01/01 07:36:21;;;;;;;28.50;17.50;;;;;;;-141.29;100.00;58932.97;5074151;28;20447;-76
2022/01/01 07:38:50;;;;;;;22.20;14.33;;;;;;;-141.29;100.00;58932.97;5074320;28;20529;-76
2022/01/01 07:41:20;;;;;;;21.20;13.77;;;;;;;-141.29;100.00;58932.97;5074282;28;20551;-76
2022/01/01 07:43:51;;;;;;;30.40;17.80;;;;;;;-141.29;100.00;58932.97;5072644;28;20478;-77
2022/01/01 07:46:18;;;;;;;28.80;16.77;;;;;;;-141.29;100.00;58932.97;5073795;28;20216;-76
2022/01/01 07:48:49;;;;;;;44.80;24.40;;;;;;;-141.29;100.00;58932.97;5073878;28;20438;-75
2022/01/01 07:51:17;;;;;;;61.43;28.80;;;;;;;-141.29;100.00;58932.97;5073984;28;20221;-76
2022/01/01 07:53:50;;;;;;;42.37;24.80;;;;;;;-141.29;100.00;58932.97;5073591;28;20258;-76
2022/01/01 07:56:20;;;;;;;32.60;18.13;;;;;;;-141.29;100.00;58932.97;5073872;28;20682;-77
2022/01/01 07:58:50;;;;;;;28.13;16.60;;;;;;;-141.29;100.00;58932.97;5073868;28;20679;-75
2022/01/01 08:01:20;;;;;;;23.37;15.57;;;;;;;-141.29;100.00;58932.97;5073701;28;20200;-75
2022/01/01 08:03:49;;;;;;;25.90;16.30;;;;;;;-141.29;100.00;58932.97;5074624;28;20431;-74
2022/01/01 08:06:17;;;;;;;34.13;20.00;;;;;;;-141.29;100.00;58932.97;5074094;28;20439;-76
2022/01/01 08:08:47;;;;;;;33.20;20.53;;;;;;;-141.29;100.00;58932.97;5073458;28;21019;-78
2022/01/01 08:11:14;;;;;;;32.63;21.60;;;;;;;-141.29;100.00;58932.97;5072290;28;20478;-75
2022/01/01 08:13:42;;;;;;;35.53;22.30;;;;;;;-141.29;100.00;58932.97;5074077;28;20439;-75
2022/01/01 08:16:10;;;;;;;51.67;29.77;;;;;;;-141.29;100.00;58932.97;5073931;28;20439;-75
2022/01/01 08:18:37;;;;;;;59.43;35.77;;;;;;;-141.29;100.00;58932.97;5074390;28;20443;-75
2022/01/01 08:21:04;;;;;;;65.87;38.67;;;;;;;-141.29;100.00;58932.97;5073358;28;20439;-76
2022/01/01 08:23:35;;;;;;;80.13;44.90;;;;;;;-141.29;100.00;58932.97;5073633;28;20435;-75
2022/01/01 08:26:05;;;;;;;79.70;45.67;;;;;;;-141.29;100.00;58932.97;5074291;28;20849;-75
2022/01/01 08:28:35;;;;;;;75.53;44.17;;;;;;;-141.29;100.00;58932.97;5073337;28;21043;-73
2022/01/01 08:31:10;;;;;;;68.83;41.33;;;;;;;-141.29;100.00;58932.97;5073780;28;20892;-75
2022/01/01 08:33:38;;;;;;;64.20;37.83;;;;;;;-141.29;100.00;58932.97;5076432;28;20443;-75
2022/01/01 08:36:06;;;;;;;62.10;35.93;;;;;;;-141.29;100.00;58932.97;5075464;28;20451;-76
2022/01/01 08:38:33;;;;;;;65.83;37.20;;;;;;;-141.29;100.00;58932.97;5073275;28;20872;-76
2022/01/01 08:41:03;;;;;;;57.87;35.70;;;;;;;-141.29;100.00;58932.97;5072791;28;20823;-74
2022/01/01 08:43:30;;;;;;;61.10;35.27;;;;;;;-141.29;100.00;58932.97;5072937;28;20478;-75
2022/01/01 08:45:58;;;;;;;59.00;34.67;;;;;;;-141.29;100.00;58932.97;5072872;28;20439;-77
2022/01/01 08:48:28;;;;;;;46.97;28.13;;;;;;;-141.29;100.00;58932.97;5073042;28;20431;-74
2022/01/01 08:50:55;;;;;;;41.43;24.57;;;;;;;-141.29;100.00;58932.97;5072640;28;20603;-76
2022/01/01 08:53:25;;;;;;;37.40;22.37;;;;;;;-141.29;100.00;58932.97;5072902;28;20973;-76
2022/01/01 08:55:57;;;;;;;38.77;24.37;;;;;;;-141.29;100.00;58932.97;5072504;28;20496;-75
2022/01/01 08:58:28;;;;;;;38.63;22.93;;;;;;;-141.29;100.00;58932.97;5072634;28;20208;-76
2022/01/01 09:00:55;;;;;;;40.93;23.77;;;;;;;-141.29;100.00;58932.97;5071339;28;20439;-75
2022/01/01 09:03:21;;;;;;;37.03;23.20;;;;;;;-141.29;100.00;58932.97;5072326;28;20446;-74
2022/01/01 09:05:49;;;;;;;29.73;17.60;;;;;;;-141.29;100.00;58932.97;5072424;28;20223;-74
2022/01/01 09:08:19;;;;;;;23.03;12.40;;;;;;;-141.29;100.00;58932.97;5072602;28;20438;-75
2022/01/01 09:10:48;;;;;;;7.03;4.63;;;;;;;-141.29;100.00;58932.97;5072175;28;20941;-76
2022/01/01 09:13:15;;;;;;;3.60;2.60;;;;;;;-141.29;100.00;58932.97;5072440;28;20484;-76
2022/01/01 09:15:46;;;;;;;3.03;2.37;;;;;;;-141.29;100.00;58932.97;5073003;28;20435;-75
2022/01/01 09:18:14;;;;;;;4.30;2.70;;;;;;;-141.29;100.00;58932.97;5072503;28;20279;-77
2022/01/01 09:20:42;;;;;;;3.53;2.47;;;;;;;-141.29;100.00;58932.97;5072071;28;20211;-74
2022/01/01 09:23:09;;;;;;;6.00;2.67;;;;;;;-141.29;100.00;58932.97;5072441;28;20286;-76
2022/01/01 09:25:36;;;;;;;4.30;2.43;;;;;;;-141.29;100.00;58932.97;5071981;28;20196;-76
2022/01/01 09:28:05;;;;;;;5.47;2.93;;;;;;;-141.29;100.00;58932.97;5071914;28;20283;-75
2022/01/01 09:30:32;;;;;;;5.13;2.77;;;;;;;-141.29;100.00;58932.97;5072056;28;20196;-76
2022/01/01 09:33:00;;;;;;;2.90;2.30;;;;;;;-141.29;100.00;58932.97;5072300;28;20637;-77
2022/01/01 09:35:27;;;;;;;3.20;2.30;;;;;;;-141.29;100.00;58932.97;5071501;28;20200;-74
2022/01/01 09:37:54;;;;;;;4.37;2.77;;;;;;;-141.29;100.00;58932.97;5072014;28;20213;-76
2022/01/01 09:40:21;;;;;;;3.60;2.30;;;;;;;-141.29;100.00;58932.97;5072014;28;20201;-75
2022/01/01 09:43:03;;;;;;;4.20;2.73;;;;;;;-141.29;100.00;58932.97;5072194;28;20327;-77
2022/01/01 09:45:42;;;;;;;5.37;2.70;;;;;;;-141.29;100.00;58932.97;5073174;28;20559;-78
2022/01/01 09:48:21;;;;;;;3.53;2.73;;;;;;;-141.29;100.00;58932.97;5072441;28;20356;-75
2022/01/01 09:50:49;;;;;;;4.43;2.97;;;;;;;-141.29;100.00;58932.97;5070386;28;20200;-76
2022/01/01 09:53:19;;;;;;;5.83;2.90;;;;;;;-141.29;100.00;58932.97;5072021;28;20228;-77
2022/01/01 09:55:46;;;;;;;6.27;2.70;;;;;;;-141.29;100.00;58932.97;5071595;28;20231;-76
2022/01/01 09:58:13;;;;;;;4.83;3.13;;;;;;;-141.29;100.00;58932.97;5070722;28;20663;-74
2022/01/01 10:00:43;;;;;;;4.37;2.57;;;;;;;-141.29;100.00;58932.97;5071689;28;20203;-75
2022/01/01 10:03:14;;;;;;;3.43;2.60;;;;;;;-141.29;100.00;58932.97;5072260;28;20192;-74
2022/01/01 10:06:03;;;;;;;5.77;3.10;;;;;;;-141.29;100.00;58932.97;5070933;28;20282;-74
2022/01/01 10:08:32;;;;;;;5.63;3.37;;;;;;;-141.29;100.00;58932.97;5073049;28;20261;-75
2022/01/01 10:10:59;;;;;;;4.87;3.47;;;;;;;-141.29;100.00;58932.97;5072100;28;20254;-75
2022/01/01 10:13:32;;;;;;;8.87;3.20;;;;;;;-141.29;100.00;58932.97;5071875;28;20230;-75
2022/01/01 10:16:02;;;;;;;5.13;3.53;;;;;;;-141.29;100.00;58932.97;5070468;28;20607;-75
2022/01/01 10:18:38;;;;;;;6.97;3.10;;;;;;;-141.29;100.00;58932.97;5071677;28;20196;-76
2022/01/01 10:21:10;;;;;;;3.67;2.67;;;;;;;-141.29;100.00;58932.97;5072146;28;20265;-76
2022/01/01 10:23:39;;;;;;;4.27;2.93;;;;;;;-141.29;100.00;58932.97;5070905;28;20265;-76
2022/01/01 10:29:10;;;;;;;4.93;3.20;;;;;;;-141.29;100.00;58932.97;5072379;28;20207;-75
2022/01/01 10:31:40;;;;;;;4.67;3.47;;;;;;;-141.29;100.00;58932.97;5071161;28;20224;-76
2022/01/01 10:34:22;;;;;;;6.97;3.23;;;;;;;-141.29;100.00;58932.97;5071763;28;20635;-74
2022/01/01 10:36:55;;;;;;;7.23;3.43;;;;;;;-141.29;100.00;58932.97;5071643;28;20196;-74
2022/01/01 10:39:23;;;;;;;4.77;3.27;;;;;;;-141.29;100.00;58932.97;5072354;28;20190;-74
2022/01/01 10:41:58;;;;;;;6.93;3.67;;;;;;;-141.29;100.00;58932.97;5071017;28;20588;-75
2022/01/01 10:44:30;;;;;;;4.20;3.17;;;;;;;-141.29;100.00;58932.97;5071486;28;20195;-75
2022/01/01 10:47:07;;;;;;;4.77;3.70;;;;;;;-141.29;100.00;58932.97;5075421;28;20207;-74
2022/01/01 10:50:13;;;;;;;5.63;3.43;;;;;;;-141.29;100.00;58932.97;5071561;28;20283;-75
2022/01/01 10:52:45;;;;;;;6.87;3.30;;;;;;;-141.29;100.00;58932.97;5071189;28;20234;-76
2022/01/01 10:55:16;;;;;;;4.37;2.77;;;;;;;-141.29;100.00;58932.97;5070368;28;20581;-77
2022/01/01 10:57:55;;;;;;;4.07;3.13;;;;;;;-141.29;100.00;58932.97;5071494;28;20196;-73
2022/01/01 11:00:30;;;;;;;6.63;3.63;;;;;;;-141.29;100.00;58932.97;5072331;28;20622;-74
2022/01/01 11:03:00;;;;;;;4.20;2.97;;;;;;;-141.29;100.00;58932.97;5074886;28;20200;-76
2022/01/01 11:05:31;;;;;;;4.80;3.43;;;;;;;-141.29;100.00;58932.97;5075246;28;20211;-74
2022/01/01 11:08:05;;;;;;;5.93;3.00;;;;;;;-141.29;100.00;58932.97;5075038;28;20249;-77
2022/01/01 11:10:32;;;;;;;4.73;3.00;;;;;;;-141.29;100.00;58932.97;5075230;28;20204;-75
2022/01/01 11:13:00;;;;;;;5.37;2.90;;;;;;;-141.29;100.00;58932.97;5075057;28;20223;-76
2022/01/01 11:15:28;;;;;;;4.30;3.37;;;;;;;-141.29;100.00;58932.97;5073306;28;20660;-78